Time;durP1;ratioP1;P1;durP2;ratioP2;P2;SDS_P1;SDS_P2;PMS_P1;PMS_P2;Temp;Humidity;BMP_temperature;BMP_pressure;BME280_temperature;BME280_humidity;BME280_pressure;Samples;Min_cycle;Max_cycle;Signal;HPM_P1;HPM_P2
2022/02/13 00:01:37;;;;;;;9.88;4.95;;;;;;;;;;5097051;28;20040;-62
2022/02/13 00:04:04;;;;;;;10.07;4.50;;;;;;;;;;5093843;28;20048;-62
2022/02/13 00:06:30;;;;;;;9.90;5.28;;;;;;;;;;5111193;28;20131;-62
2022/02/13 00:08:56;;;;;;;9.57;5.38;;;;;;;;;;5094185;28;20095;-62
2022/02/13 00:11:23;;;;;;;14.10;5.65;;;;;;;;;;5102769;28;20054;-62
2022/02/13 00:13:49;;;;;;;14.05;4.95;;;;;;;;;;5084605;28;20128;-62
2022/02/13 00:16:16;;;;;;;13.40;5.60;;;;;;;;;;5086786;28;20055;-62
2022/02/13 00:18:42;;;;;;;12.05;4.45;;;;;;;;;;5086850;28;20109;-62
2022/02/13 00:21:08;;;;;;;12.95;5.30;;;;;;;;;;5081711;28;20560;-62
2022/02/13 00:23:35;;;;;;;9.88;4.72;;;;;;;;;;5082193;28;20040;-62
2022/02/13 00:26:01;;;;;;;13.10;5.57;;;;;;;;;;5096531;28;20041;-62
2022/02/13 00:28:27;;;;;;;9.63;5.55;;;;;;;;;;5084017;28;20119;-62
2022/02/13 00:30:53;;;;;;;9.80;5.70;;;;;;;;;;5083880;28;20109;-62
2022/02/13 00:33:19;;;;;;;10.75;5.13;;;;;;;;;;5085100;28;20101;-62
2022/02/13 00:35:46;;;;;;;13.88;5.45;;;;;;;;;;5101698;28;20059;-62
2022/02/13 00:38:15;;;;;;;10.18;5.43;;;;;;;;;;5103530;28;20067;-62
2022/02/13 00:40:41;;;;;;;9.98;5.72;;;;;;;;;;5102703;28;20056;-62
2022/02/13 00:43:07;;;;;;;12.05;4.88;;;;;;;;;;5104114;28;20056;-62
2022/02/13 00:45:34;;;;;;;11.98;5.82;;;;;;;;;;5103901;28;20044;-62
2022/02/13 00:48:00;;;;;;;9.15;5.45;;;;;;;;;;5102514;28;20048;-62
2022/02/13 00:50:26;;;;;;;10.20;5.25;;;;;;;;;;5084742;28;20072;-62
2022/02/13 00:52:52;;;;;;;11.52;6.00;;;;;;;;;;5081644;28;20059;-62
2022/02/13 00:55:19;;;;;;;11.13;5.82;;;;;;;;;;5082592;28;20634;-62
2022/02/13 00:57:45;;;;;;;11.40;4.38;;;;;;;;;;5082382;28;20049;-62
2022/02/13 01:00:11;;;;;;;12.82;5.78;;;;;;;;;;5083650;28;20201;-62
2022/02/13 01:02:37;;;;;;;16.63;5.22;;;;;;;;;;5083111;28;20045;-61
2022/02/13 01:05:03;;;;;;;13.00;5.22;;;;;;;;;;5084507;28;20046;-62
2022/02/13 01:07:30;;;;;;;11.48;4.63;;;;;;;;;;5084297;28;20111;-62
2022/02/13 01:09:56;;;;;;;9.15;5.30;;;;;;;;;;5102898;28;20048;-62
2022/02/13 01:12:22;;;;;;;9.93;5.43;;;;;;;;;;5086008;28;20053;-62
2022/02/13 01:14:48;;;;;;;10.15;5.78;;;;;;;;;;5086914;28;20055;-61
2022/02/13 01:17:14;;;;;;;8.85;5.00;;;;;;;;;;5086740;28;20049;-61
2022/02/13 01:19:40;;;;;;;10.65;5.50;;;;;;;;;;5086209;28;20052;-62
2022/02/13 01:22:07;;;;;;;15.45;5.60;;;;;;;;;;5106124;28;20074;-62
2022/02/13 01:24:37;;;;;;;10.77;4.75;;;;;;;;;;5105868;28;20408;-62
2022/02/13 01:27:03;;;;;;;10.15;5.00;;;;;;;;;;5105977;28;20070;-62
2022/02/13 01:29:29;;;;;;;9.77;4.75;;;;;;;;;;5105630;28;20048;-62
2022/02/13 01:31:56;;;;;;;10.63;4.75;;;;;;;;;;5106765;28;20036;-62
2022/02/13 01:34:22;;;;;;;12.10;5.50;;;;;;;;;;5106591;28;20047;-62
2022/02/13 01:36:48;;;;;;;12.13;5.38;;;;;;;;;;5097968;28;20113;-62
2022/02/13 01:39:15;;;;;;;11.93;6.07;;;;;;;;;;5066896;28;20114;-61
2022/02/13 01:41:41;;;;;;;13.68;5.72;;;;;;;;;;5080627;28;20536;-62
2022/02/13 01:44:22;;;;;;;15.23;5.93;;;;;;;;;;5101905;28;20056;-62
2022/02/13 01:46:48;;;;;;;10.52;5.10;;;;;;;;;;5086394;28;20045;-62
2022/02/13 01:49:14;;;;;;;12.20;5.57;;;;;;;;;;5086303;28;20055;-62
2022/02/13 01:51:40;;;;;;;12.50;6.13;;;;;;;;;;5097767;28;20057;-62
2022/02/13 01:54:06;;;;;;;10.57;5.72;;;;;;;;;;5103256;28;20048;-62
2022/02/13 01:56:33;;;;;;;13.25;5.25;;;;;;;;;;5105442;28;20075;-62
2022/02/13 01:58:59;;;;;;;10.32;4.93;;;;;;;;;;5105031;28;20075;-62
2022/02/13 02:01:25;;;;;;;14.23;6.45;;;;;;;;;;5106252;28;20313;-62
2022/02/13 02:03:51;;;;;;;14.85;5.18;;;;;;;;;;5102275;28;20523;-62
2022/02/13 02:06:17;;;;;;;16.30;5.97;;;;;;;;;;5085494;28;20066;-62
2022/02/13 02:08:43;;;;;;;11.38;6.10;;;;;;;;;;5087070;28;20116;-62
2022/02/13 02:11:10;;;;;;;10.32;5.20;;;;;;;;;;5084540;28;20090;-62
2022/02/13 02:13:36;;;;;;;13.15;5.38;;;;;;;;;;5085856;28;20044;-62
2022/02/13 02:16:02;;;;;;;9.30;5.50;;;;;;;;;;5085658;28;20404;-62
2022/02/13 02:18:28;;;;;;;10.95;5.78;;;;;;;;;;5085538;28;20047;-61
2022/02/13 02:20:56;;;;;;;14.32;5.78;;;;;;;;;;5083846;28;20052;-62
2022/02/13 02:23:23;;;;;;;10.18;5.35;;;;;;;;;;5101705;28;20035;-62
2022/02/13 02:25:49;;;;;;;11.10;6.68;;;;;;;;;;5104647;28;20059;-61
2022/02/13 02:28:15;;;;;;;13.45;5.50;;;;;;;;;;5105688;28;20052;-62
2022/02/13 02:30:41;;;;;;;18.67;6.43;;;;;;;;;;5105884;28;20048;-62
2022/02/13 02:33:11;;;;;;;11.57;5.28;;;;;;;;;;5102962;28;20052;-62
2022/02/13 02:35:37;;;;;;;11.77;5.45;;;;;;;;;;5105866;28;20044;-62
2022/02/13 02:38:03;;;;;;;10.10;6.03;;;;;;;;;;5105014;28;20059;-62
2022/02/13 02:40:30;;;;;;;17.92;5.93;;;;;;;;;;5085393;28;20519;-62
2022/02/13 02:42:56;;;;;;;16.15;5.32;;;;;;;;;;5085066;28;20108;-62
2022/02/13 02:45:22;;;;;;;12.18;6.68;;;;;;;;;;5085251;28;20143;-62
2022/02/13 02:47:48;;;;;;;14.00;6.57;;;;;;;;;;5083807;28;20044;-62
2022/02/13 02:50:14;;;;;;;11.00;6.18;;;;;;;;;;5085304;28;20080;-62
2022/02/13 02:52:41;;;;;;;12.95;5.78;;;;;;;;;;5088106;28;20048;-62
2022/02/13 02:55:08;;;;;;;12.07;6.87;;;;;;;;;;5087516;28;20105;-62
2022/02/13 02:57:34;;;;;;;8.52;5.72;;;;;;;;;;5084877;28;20123;-62
2022/02/13 03:00:00;;;;;;;16.77;7.15;;;;;;;;;;5084987;28;20072;-61
2022/02/13 03:02:27;;;;;;;12.02;6.75;;;;;;;;;;5084589;28;20108;-62
2022/02/13 03:04:53;;;;;;;21.85;7.28;;;;;;;;;;5085361;28;20047;-62
2022/02/13 03:07:19;;;;;;;15.07;5.95;;;;;;;;;;5083972;28;20621;-62
2022/02/13 03:09:45;;;;;;;16.42;6.32;;;;;;;;;;5095716;28;20043;-62
2022/02/13 03:12:11;;;;;;;14.18;6.35;;;;;;;;;;5103302;28;20119;-62
2022/02/13 03:14:37;;;;;;;15.85;6.65;;;;;;;;;;5105145;28;20048;-62
2022/02/13 03:17:06;;;;;;;11.35;5.95;;;;;;;;;;5104583;28;20047;-62
2022/02/13 03:19:33;;;;;;;12.13;5.85;;;;;;;;;;5105282;28;20051;-62
2022/02/13 03:21:59;;;;;;;14.75;6.60;;;;;;;;;;5103908;28;20047;-62
2022/02/13 03:24:25;;;;;;;11.13;6.68;;;;;;;;;;5103762;28;20052;-62
2022/02/13 03:26:51;;;;;;;15.93;6.10;;;;;;;;;;5087116;28;20054;-62
2022/02/13 03:29:17;;;;;;;11.55;6.20;;;;;;;;;;5082998;28;20435;-61
2022/02/13 03:31:44;;;;;;;17.55;6.50;;;;;;;;;;5085007;28;20044;-62
2022/02/13 03:34:10;;;;;;;10.50;6.82;;;;;;;;;;5083504;28;20052;-62
2022/02/13 03:36:36;;;;;;;13.82;6.40;;;;;;;;;;5083745;28;20076;-62
2022/02/13 03:39:04;;;;;;;12.05;7.00;;;;;;;;;;5084423;28;20041;-61
2022/02/13 03:41:30;;;;;;;19.70;8.02;;;;;;;;;;5083987;28;20060;-62
2022/02/13 03:43:56;;;;;;;13.48;5.68;;;;;;;;;;5084259;28;20044;-62
2022/02/13 03:46:22;;;;;;;13.75;6.90;;;;;;;;;;5103739;28;20075;-61
2022/02/13 03:48:48;;;;;;;13.95;7.35;;;;;;;;;;5104763;28;20044;-61
2022/02/13 03:51:15;;;;;;;12.18;6.15;;;;;;;;;;5086436;28;20037;-59
2022/02/13 03:53:41;;;;;;;15.07;7.30;;;;;;;;;;5063798;28;20041;-60
2022/02/13 03:56:07;;;;;;;15.48;7.38;;;;;;;;;;5063861;28;20516;-61
2022/02/13 03:58:33;;;;;;;15.00;6.97;;;;;;;;;;5062810;28;20364;-60
2022/02/13 04:00:59;;;;;;;13.63;6.70;;;;;;;;;;5101527;28;20099;-60
2022/02/13 04:03:26;;;;;;;15.57;7.28;;;;;;;;;;5104419;28;20056;-60
2022/02/13 04:05:54;;;;;;;15.00;5.97;;;;;;;;;;5103704;28;20089;-60
2022/02/13 04:08:21;;;;;;;8.93;5.75;;;;;;;;;;5103981;28;20053;-60
2022/02/13 04:10:47;;;;;;;13.93;7.00;;;;;;;;;;5102939;28;20050;-60
2022/02/13 04:13:13;;;;;;;15.18;7.07;;;;;;;;;;5104444;28;20048;-60
2022/02/13 04:15:39;;;;;;;14.35;7.18;;;;;;;;;;5101188;28;20040;-61
2022/02/13 04:18:12;;;;;;;12.77;6.40;;;;;;;;;;5104019;28;20205;-61
2022/02/13 04:20:38;;;;;;;17.63;6.30;;;;;;;;;;5103967;28;20194;-61
2022/02/13 04:23:04;;;;;;;13.27;6.25;;;;;;;;;;5103104;28;20040;-61
2022/02/13 04:25:30;;;;;;;10.32;6.57;;;;;;;;;;5090247;28;20083;-61
2022/02/13 04:27:57;;;;;;;15.52;6.78;;;;;;;;;;5083893;28;20044;-61
2022/02/13 04:30:23;;;;;;;14.70;6.57;;;;;;;;;;5083837;28;20059;-61
2022/02/13 04:32:49;;;;;;;15.50;7.40;;;;;;;;;;5083437;28;20053;-61
2022/02/13 04:35:16;;;;;;;12.88;7.70;;;;;;;;;;5097221;28;20048;-61
2022/02/13 04:37:42;;;;;;;17.42;7.05;;;;;;;;;;5102943;28;20082;-61
2022/02/13 04:40:08;;;;;;;15.32;7.57;;;;;;;;;;5103938;28;20059;-61
2022/02/13 04:42:35;;;;;;;15.60;6.53;;;;;;;;;;5105800;28;20060;-61
2022/02/13 04:45:01;;;;;;;13.77;6.80;;;;;;;;;;5095964;28;20041;-61
2022/02/13 04:47:27;;;;;;;18.63;6.47;;;;;;;;;;5087088;28;20340;-61
2022/02/13 04:49:53;;;;;;;13.00;7.88;;;;;;;;;;5086332;28;20070;-61
2022/02/13 04:52:19;;;;;;;13.13;6.90;;;;;;;;;;5086308;28;20048;-61
2022/02/13 04:54:45;;;;;;;15.15;6.80;;;;;;;;;;5097886;28;20050;-61
2022/02/13 04:57:11;;;;;;;16.40;8.07;;;;;;;;;;5107465;28;20518;-61
2022/02/13 04:59:37;;;;;;;15.65;6.93;;;;;;;;;;5107462;28;20044;-61
2022/02/13 05:02:04;;;;;;;16.63;7.05;;;;;;;;;;5107322;28;20048;-61
2022/02/13 05:04:31;;;;;;;12.30;6.55;;;;;;;;;;5104302;28;20040;-61
2022/02/13 05:06:57;;;;;;;17.42;7.68;;;;;;;;;;5086935;28;20056;-61
2022/02/13 05:09:23;;;;;;;12.68;7.45;;;;;;;;;;5085955;28;20050;-61
2022/02/13 05:11:49;;;;;;;14.63;7.30;;;;;;;;;;5087272;28;20484;-61
2022/02/13 05:14:15;;;;;;;13.73;6.60;;;;;;;;;;5095179;28;20048;-61
2022/02/13 05:16:41;;;;;;;16.25;7.03;;;;;;;;;;5107019;28;20091;-61
2022/02/13 05:19:07;;;;;;;17.33;7.35;;;;;;;;;;5105849;28;20365;-60
2022/02/13 05:21:34;;;;;;;14.32;7.10;;;;;;;;;;5106398;28;20059;-61
2022/02/13 05:24:00;;;;;;;13.95;7.15;;;;;;;;;;5098165;28;20090;-61
2022/02/13 05:26:26;;;;;;;13.90;7.40;;;;;;;;;;5107228;28;20048;-61
2022/02/13 05:28:55;;;;;;;13.77;7.57;;;;;;;;;;5106988;28;20095;-60
2022/02/13 05:31:22;;;;;;;13.23;6.90;;;;;;;;;;5105650;28;20056;-61
2022/02/13 05:33:48;;;;;;;12.70;7.45;;;;;;;;;;5087309;28;20040;-61
2022/02/13 05:36:14;;;;;;;15.98;6.88;;;;;;;;;;5085906;28;20048;-61
2022/02/13 05:38:40;;;;;;;19.60;7.68;;;;;;;;;;5086480;28;20068;-61
2022/02/13 05:41:06;;;;;;;10.25;6.18;;;;;;;;;;5085942;28;20052;-61
2022/02/13 05:43:32;;;;;;;14.18;6.95;;;;;;;;;;5101737;28;20360;-60
2022/02/13 05:45:58;;;;;;;16.55;8.05;;;;;;;;;;5106414;28;20051;-60
2022/02/13 05:48:25;;;;;;;12.50;6.68;;;;;;;;;;5106565;28;20552;-60
2022/02/13 05:50:52;;;;;;;15.30;8.25;;;;;;;;;;5104325;28;20075;-60
2022/02/13 05:53:18;;;;;;;13.98;6.38;;;;;;;;;;5092466;28;20055;-60
2022/02/13 05:55:44;;;;;;;12.65;6.70;;;;;;;;;;5086055;28;20040;-60
2022/02/13 05:58:10;;;;;;;14.30;7.47;;;;;;;;;;5086238;28;20108;-60
2022/02/13 06:00:36;;;;;;;11.88;7.60;;;;;;;;;;5086078;28;20044;-60
2022/02/13 06:03:04;;;;;;;15.13;7.55;;;;;;;;;;5098390;28;20131;-60
2022/02/13 06:05:30;;;;;;;16.98;6.75;;;;;;;;;;5106207;28;20046;-60
2022/02/13 06:07:56;;;;;;;13.27;7.30;;;;;;;;;;5105780;28;20118;-60
2022/02/13 06:10:22;;;;;;;10.95;7.07;;;;;;;;;;5104831;28;20060;-60
2022/02/13 06:12:48;;;;;;;11.75;7.00;;;;;;;;;;5095111;28;20052;-60
2022/02/13 06:15:14;;;;;;;12.40;6.90;;;;;;;;;;5085756;28;20041;-61
2022/02/13 06:17:41;;;;;;;16.00;7.65;;;;;;;;;;5085644;28;20104;-60
2022/02/13 06:20:07;;;;;;;15.30;7.03;;;;;;;;;;5085508;28;20040;-60
2022/02/13 06:22:34;;;;;;;11.02;6.18;;;;;;;;;;5085969;28;20047;-60
2022/02/13 06:25:00;;;;;;;18.58;7.45;;;;;;;;;;5085472;28;20051;-60
2022/02/13 06:27:26;;;;;;;13.63;7.18;;;;;;;;;;5085369;28;20098;-60
2022/02/13 06:29:53;;;;;;;15.35;7.60;;;;;;;;;;5085422;28;20443;-60
2022/02/13 06:32:19;;;;;;;11.80;6.63;;;;;;;;;;5088623;28;20046;-60
2022/02/13 06:34:46;;;;;;;14.35;7.60;;;;;;;;;;5105944;28;20032;-60
2022/02/13 06:37:12;;;;;;;11.82;5.72;;;;;;;;;;5103614;28;20076;-60
2022/02/13 06:39:38;;;;;;;16.35;7.28;;;;;;;;;;5105608;28;20579;-59
2022/02/13 06:42:05;;;;;;;13.18;6.93;;;;;;;;;;5097000;28;20056;-60
2022/02/13 06:44:31;;;;;;;12.45;7.00;;;;;;;;;;5098489;28;20044;-60
2022/02/13 06:46:57;;;;;;;17.85;6.50;;;;;;;;;;5105003;28;20062;-60
2022/02/13 06:49:23;;;;;;;10.60;6.38;;;;;;;;;;5105450;28;20036;-60
2022/02/13 06:51:49;;;;;;;12.13;7.10;;;;;;;;;;5101247;28;20131;-60
2022/02/13 06:54:15;;;;;;;10.32;6.22;;;;;;;;;;5105125;28;20044;-60
2022/02/13 06:56:41;;;;;;;11.90;6.68;;;;;;;;;;5104987;28;20077;-60
2022/02/13 06:59:07;;;;;;;10.55;6.72;;;;;;;;;;5105152;28;20048;-60
2022/02/13 07:01:36;;;;;;;15.10;6.97;;;;;;;;;;5098342;28;20048;-60
2022/02/13 07:04:03;;;;;;;12.98;6.60;;;;;;;;;;5084593;28;20047;-60
2022/02/13 07:06:29;;;;;;;11.75;6.05;;;;;;;;;;5083860;28;20048;-60
2022/02/13 07:08:55;;;;;;;14.82;7.18;;;;;;;;;;5099840;28;20037;-60
2022/02/13 07:11:21;;;;;;;13.13;6.70;;;;;;;;;;5087219;28;20254;-60
2022/02/13 07:13:47;;;;;;;12.77;7.03;;;;;;;;;;5104899;28;20032;-60
2022/02/13 07:16:13;;;;;;;10.43;5.78;;;;;;;;;;5104669;28;20063;-60
2022/02/13 07:18:39;;;;;;;12.55;6.55;;;;;;;;;;5105029;28;20036;-60
2022/02/13 07:21:05;;;;;;;12.13;6.57;;;;;;;;;;5101230;28;20163;-60
2022/02/13 07:23:31;;;;;;;14.27;7.50;;;;;;;;;;5083130;28;20071;-61
2022/02/13 07:25:58;;;;;;;11.88;5.63;;;;;;;;;;5083083;28;20144;-61
2022/02/13 07:31:09;;;;;;;12.60;5.78;;;;;;;;;;5086772;28;20059;-60
2022/02/13 07:33:35;;;;;;;15.07;6.47;;;;;;;;;;5103761;28;20126;-60
2022/02/13 07:36:01;;;;;;;9.40;6.28;;;;;;;;;;5103966;28;20043;-61
2022/02/13 07:38:28;;;;;;;12.05;6.10;;;;;;;;;;5104235;28;20048;-60
2022/02/13 07:40:54;;;;;;;9.07;6.10;;;;;;;;;;5103630;28;20476;-61
2022/02/13 07:43:20;;;;;;;11.73;5.82;;;;;;;;;;5084010;28;20049;-61
2022/02/13 07:45:46;;;;;;;12.57;6.38;;;;;;;;;;5084885;28;20122;-61
2022/02/13 07:48:12;;;;;;;9.75;6.10;;;;;;;;;;5084628;28;20052;-60
2022/02/13 07:50:39;;;;;;;13.77;6.82;;;;;;;;;;5082565;28;20055;-61
2022/02/13 07:53:05;;;;;;;10.65;6.50;;;;;;;;;;5100654;28;20056;-60
2022/02/13 07:55:32;;;;;;;10.35;5.88;;;;;;;;;;5084223;28;20040;-60
2022/02/13 07:57:59;;;;;;;14.07;6.30;;;;;;;;;;5084129;28;20052;-60
2022/02/13 08:00:25;;;;;;;9.02;5.40;;;;;;;;;;5084060;28;20040;-60
2022/02/13 08:02:52;;;;;;;11.23;6.05;;;;;;;;;;5083448;28;20117;-60
2022/02/13 08:05:18;;;;;;;11.57;6.28;;;;;;;;;;5084054;28;20054;-61
2022/02/13 08:07:48;;;;;;;10.77;6.50;;;;;;;;;;5083080;28;20033;-60
2022/02/13 08:10:18;;;;;;;11.98;6.32;;;;;;;;;;5083832;28;20127;-61
2022/02/13 08:12:45;;;;;;;10.15;5.82;;;;;;;;;;5084121;28;20123;-62
2022/02/13 08:15:11;;;;;;;11.10;6.15;;;;;;;;;;5082923;28;20108;-61
2022/02/13 08:17:37;;;;;;;12.65;6.32;;;;;;;;;;5090610;28;20066;-61
2022/02/13 08:20:05;;;;;;;12.77;6.93;;;;;;;;;;5105330;28;20119;-61
2022/02/13 08:22:33;;;;;;;11.60;5.68;;;;;;;;;;5092014;28;20488;-61
2022/02/13 08:24:59;;;;;;;13.98;6.40;;;;;;;;;;5079564;28;20045;-61
2022/02/13 08:27:25;;;;;;;12.15;6.43;;;;;;;;;;5087048;28;20040;-61
2022/02/13 08:29:51;;;;;;;10.55;5.97;;;;;;;;;;5094056;28;20099;-61
2022/02/13 08:32:18;;;;;;;10.65;5.90;;;;;;;;;;5092677;28;20048;-62
2022/02/13 08:34:45;;;;;;;9.20;5.35;;;;;;;;;;5087100;28;20044;-62
2022/02/13 08:37:12;;;;;;;16.15;6.55;;;;;;;;;;5102704;28;20468;-61
2022/02/13 08:39:38;;;;;;;11.55;6.15;;;;;;;;;;5088256;28;20046;-62
2022/02/13 08:42:05;;;;;;;10.70;6.45;;;;;;;;;;5089492;28;20395;-62
2022/02/13 08:44:31;;;;;;;9.75;6.10;;;;;;;;;;5087798;28;20048;-61
2022/02/13 08:46:57;;;;;;;13.32;7.13;;;;;;;;;;5096636;28;20098;-61
2022/02/13 08:49:23;;;;;;;11.40;5.95;;;;;;;;;;5091807;28;20122;-60
2022/02/13 08:51:49;;;;;;;12.65;5.05;;;;;;;;;;5093037;28;20527;-61
2022/02/13 08:54:15;;;;;;;14.02;6.85;;;;;;;;;;5097311;28;20131;-60
2022/02/13 08:56:42;;;;;;;10.75;5.82;;;;;;;;;;5097528;28;20052;-62
2022/02/13 08:59:08;;;;;;;8.55;5.72;;;;;;;;;;5091372;28;20036;-62
2022/02/13 09:01:35;;;;;;;11.18;6.22;;;;;;;;;;5094967;28;20045;-62
2022/02/13 09:04:02;;;;;;;8.63;6.03;;;;;;;;;;5095828;28;20067;-62
2022/02/13 09:06:28;;;;;;;12.70;5.82;;;;;;;;;;5073404;28;20045;-62
2022/02/13 09:08:54;;;;;;;12.18;6.03;;;;;;;;;;5082737;28;20036;-62
2022/02/13 09:11:20;;;;;;;11.70;6.47;;;;;;;;;;5088301;28;20490;-62
2022/02/13 09:13:46;;;;;;;13.70;6.55;;;;;;;;;;5077765;28;20127;-61
2022/02/13 09:16:12;;;;;;;12.20;6.15;;;;;;;;;;5080009;28;20069;-63
2022/02/13 09:18:38;;;;;;;9.13;6.35;;;;;;;;;;5078329;28;20131;-62
2022/02/13 09:21:04;;;;;;;10.63;6.10;;;;;;;;;;5100908;28;20048;-61
2022/02/13 09:23:31;;;;;;;12.05;6.35;;;;;;;;;;5075772;28;20135;-62
2022/02/13 09:25:57;;;;;;;12.98;5.95;;;;;;;;;;5075559;28;20041;-62
2022/02/13 09:28:23;;;;;;;14.85;6.15;;;;;;;;;;5085019;28;20052;-63
2022/02/13 09:30:50;;;;;;;13.93;6.13;;;;;;;;;;5067214;28;20101;-61
2022/02/13 09:33:17;;;;;;;12.32;7.10;;;;;;;;;;5077945;28;20037;-61
2022/02/13 09:35:49;;;;;;;10.70;5.95;;;;;;;;;;5084914;28;20232;-62
2022/02/13 09:38:16;;;;;;;11.07;6.10;;;;;;;;;;5071000;28;20120;-62
2022/02/13 09:40:47;;;;;;;7.30;5.50;;;;;;;;;;5082412;28;20180;-61
2022/02/13 09:43:14;;;;;;;12.25;6.07;;;;;;;;;;5077531;28;20052;-61
2022/02/13 09:45:42;;;;;;;12.45;6.30;;;;;;;;;;5080440;28;20079;-62
2022/02/13 09:48:11;;;;;;;10.88;6.00;;;;;;;;;;5079161;28;20045;-62
2022/02/13 09:50:37;;;;;;;10.30;6.22;;;;;;;;;;5084651;28;20080;-62
2022/02/13 09:53:07;;;;;;;10.13;5.38;;;;;;;;;;5079270;28;20137;-62
2022/02/13 09:55:33;;;;;;;12.45;6.68;;;;;;;;;;5082245;28;20127;-63
2022/02/13 09:58:00;;;;;;;9.85;6.55;;;;;;;;;;5084397;28;20098;-62
2022/02/13 10:00:45;;;;;;;8.40;6.00;;;;;;;;;;5073582;28;20044;-61
2022/02/13 10:03:22;;;;;;;10.32;6.63;;;;;;;;;;5080646;28;20044;-62
2022/02/13 10:05:48;;;;;;;11.80;5.95;;;;;;;;;;5081559;28;20145;-62
2022/02/13 10:08:27;;;;;;;8.73;5.68;;;;;;;;;;5074698;28;20052;-62
2022/02/13 10:11:17;;;;;;;10.43;5.47;;;;;;;;;;5093845;28;20458;-62
2022/02/13 10:13:54;;;;;;;11.00;6.30;;;;;;;;;;5072242;28;20058;-63
2022/02/13 10:16:21;;;;;;;11.50;5.60;;;;;;;;;;5085677;28;20040;-62
2022/02/13 10:18:51;;;;;;;11.93;6.10;;;;;;;;;;5094920;28;20048;-63
2022/02/13 10:21:38;;;;;;;9.98;5.85;;;;;;;;;;5091834;28;20119;-63
2022/02/13 10:24:13;;;;;;;10.23;5.65;;;;;;;;;;5088080;28;20041;-64
2022/02/13 10:26:39;;;;;;;7.35;5.43;;;;;;;;;;5086716;28;20079;-62
2022/02/13 10:29:05;;;;;;;10.73;5.80;;;;;;;;;;5091206;28;20395;-61
2022/02/13 10:31:31;;;;;;;10.38;6.18;;;;;;;;;;5071455;28;20061;-63
2022/02/13 10:33:58;;;;;;;10.95;5.45;;;;;;;;;;5075675;28;20045;-63
2022/02/13 10:36:24;;;;;;;9.75;5.50;;;;;;;;;;5096708;28;20059;-62
2022/02/13 10:38:51;;;;;;;10.57;5.78;;;;;;;;;;5073464;28;20109;-62
2022/02/13 10:41:21;;;;;;;15.90;5.35;;;;;;;;;;5079872;28;20044;-63
2022/02/13 10:44:03;;;;;;;9.63;5.00;;;;;;;;;;5084160;28;20070;-62
2022/02/13 10:46:31;;;;;;;9.73;5.30;;;;;;;;;;5076666;28;20072;-62
2022/02/13 10:48:57;;;;;;;9.02;5.30;;;;;;;;;;5079177;28;20520;-62
2022/02/13 10:51:24;;;;;;;10.70;5.53;;;;;;;;;;5079539;28;20059;-62
2022/02/13 10:53:51;;;;;;;10.38;5.15;;;;;;;;;;5080672;28;20107;-62
2022/02/13 10:56:18;;;;;;;6.72;4.80;;;;;;;;;;5086394;28;20060;-62
2022/02/13 10:58:44;;;;;;;8.68;5.20;;;;;;;;;;5091126;28;20130;-62
2022/02/13 11:01:12;;;;;;;13.63;5.82;;;;;;;;;;5078643;28;20032;-69
2022/02/13 11:03:38;;;;;;;9.73;5.10;;;;;;;;;;5076875;28;20522;-71
2022/02/13 11:06:06;;;;;;;12.70;5.72;;;;;;;;;;5086670;28;20066;-69
2022/02/13 11:08:34;;;;;;;9.27;5.35;;;;;;;;;;5077602;28;20064;-66
2022/02/13 11:11:00;;;;;;;10.15;5.47;;;;;;;;;;5080423;28;21894;-66
2022/02/13 11:13:30;;;;;;;8.93;5.68;;;;;;;;;;5078813;28;20108;-66
2022/02/13 11:15:56;;;;;;;8.50;5.05;;;;;;;;;;5076602;28;20080;-65
2022/02/13 11:18:23;;;;;;;8.63;5.40;;;;;;;;;;5077268;28;20488;-64
2022/02/13 11:20:51;;;;;;;8.40;5.20;;;;;;;;;;5075703;28;20046;-64
2022/02/13 11:23:22;;;;;;;9.05;5.20;;;;;;;;;;5083474;28;20052;-65
2022/02/13 11:25:51;;;;;;;11.80;5.55;;;;;;;;;;5080239;28;20041;-63
2022/02/13 11:28:23;;;;;;;8.38;5.38;;;;;;;;;;5077860;28;20052;-64
2022/02/13 11:30:50;;;;;;;9.38;5.57;;;;;;;;;;5070479;28;20075;-64
2022/02/13 11:33:38;;;;;;;8.02;5.60;;;;;;;;;;5073249;28;20267;-63
2022/02/13 11:36:08;;;;;;;7.57;4.85;;;;;;;;;;5080372;28;20044;-64
2022/02/13 11:38:46;;;;;;;6.25;4.68;;;;;;;;;;5077940;28;20047;-60
2022/02/13 11:41:16;;;;;;;11.50;4.93;;;;;;;;;;5085977;28;20500;-62
2022/02/13 11:43:46;;;;;;;8.98;4.93;;;;;;;;;;5078298;28;20417;-61
2022/02/13 11:46:12;;;;;;;8.73;5.20;;;;;;;;;;5086912;28;20045;-61
2022/02/13 11:48:42;;;;;;;9.02;5.03;;;;;;;;;;5075637;28;20132;-61
2022/02/13 11:51:10;;;;;;;8.25;5.13;;;;;;;;;;5075946;28;20052;-60
2022/02/13 11:53:36;;;;;;;;;;;;;;;;;;5075435;28;20043;-66
2022/02/13 11:56:21;;;;;;;5.88;4.20;;;;;;;;;;5078162;28;19924;-68
2022/02/13 11:58:47;;;;;;;5.90;4.25;;;;;;;;;;5091114;28;20059;-74
2022/02/13 12:01:32;;;;;;;8.30;4.53;;;;;;;;;;5097286;28;20132;-74
2022/02/13 12:03:58;;;;;;;12.75;5.25;;;;;;;;;;5081225;28;20072;-66
2022/02/13 12:06:31;;;;;;;9.13;4.55;;;;;;;;;;5097278;28;20076;-69
2022/02/13 12:09:01;;;;;;;8.98;5.10;;;;;;;;;;5093915;28;20056;-67
2022/02/13 12:11:36;;;;;;;8.10;4.53;;;;;;;;;;5077057;28;20041;-68
2022/02/13 12:14:15;;;;;;;8.68;4.97;;;;;;;;;;5090395;28;20044;-68
2022/02/13 12:16:51;;;;;;;6.50;4.75;;;;;;;;;;5096080;28;20513;-68
2022/02/13 12:19:50;;;;;;;6.00;3.40;;;;;;;;;;5083025;28;20068;-61
2022/02/13 12:22:19;;;;;;;6.28;4.45;;;;;;;;;;5053017;28;20137;-61
2022/02/13 12:24:45;;;;;;;7.93;4.78;;;;;;;;;;5056979;28;20090;-62
2022/02/13 12:27:12;;;;;;;7.38;4.93;;;;;;;;;;5061496;28;20085;-59
2022/02/13 12:29:58;;;;;;;6.25;4.30;;;;;;;;;;5059146;28;20064;-60
2022/02/13 12:32:26;;;;;;;6.40;4.32;;;;;;;;;;5054692;28;20049;-62
2022/02/13 12:35:13;;;;;;;7.07;4.20;;;;;;;;;;5077386;28;20057;-62
2022/02/13 12:37:46;;;;;;;7.63;4.18;;;;;;;;;;5053517;28;20056;-62
2022/02/13 12:40:14;;;;;;;6.15;4.13;;;;;;;;;;5057549;28;20036;-62
2022/02/13 12:42:41;;;;;;;7.47;4.60;;;;;;;;;;5040552;28;20053;-62
2022/02/13 12:45:09;;;;;;;6.00;3.90;;;;;;;;;;5060036;28;20583;-62
2022/02/13 12:47:35;;;;;;;;;;;;;;;;;;5056771;28;20076;-61
2022/02/13 12:50:02;;;;;;;7.43;4.35;;;;;;;;;;5059989;28;19931;-62
2022/02/13 12:52:31;;;;;;;6.70;4.88;;;;;;;;;;5058117;28;20049;-64
2022/02/13 12:54:58;;;;;;;6.40;4.53;;;;;;;;;;5058830;28;20172;-66
2022/02/13 12:57:26;;;;;;;4.93;4.20;;;;;;;;;;5063333;28;20049;-62
2022/02/13 12:59:53;;;;;;;4.20;3.40;;;;;;;;;;5075903;28;20043;-65
2022/02/13 13:02:20;;;;;;;10.98;4.68;;;;;;;;;;5089165;28;20116;-66
2022/02/13 13:04:46;;;;;;;6.55;4.28;;;;;;;;;;5096853;28;20056;-66
2022/02/13 13:07:23;;;;;;;9.63;4.70;;;;;;;;;;5081476;28;20444;-64
2022/02/13 13:09:50;;;;;;;5.63;3.75;;;;;;;;;;5081517;28;20048;-63
2022/02/13 13:12:17;;;;;;;5.78;3.80;;;;;;;;;;5080443;28;20119;-64
2022/02/13 13:14:43;;;;;;;9.38;4.03;;;;;;;;;;5082094;28;20092;-62
2022/02/13 13:17:10;;;;;;;6.53;3.92;;;;;;;;;;5071031;28;20041;-62
2022/02/13 13:19:39;;;;;;;5.75;4.95;;;;;;;;;;5079129;28;20040;-62
2022/02/13 13:22:18;;;;;;;6.13;4.35;;;;;;;;;;5077423;28;20087;-63
2022/02/13 13:24:45;;;;;;;4.53;3.35;;;;;;;;;;5094363;28;20055;-62
2022/02/13 13:27:17;;;;;;;7.30;3.93;;;;;;;;;;5082541;28;20047;-62
2022/02/13 13:29:43;;;;;;;8.55;4.25;;;;;;;;;;5078241;28;20083;-63
2022/02/13 13:32:16;;;;;;;8.32;3.80;;;;;;;;;;5079110;28;20106;-64
2022/02/13 13:34:46;;;;;;;5.15;3.80;;;;;;;;;;5095374;28;20044;-65
2022/02/13 13:37:30;;;;;;;7.10;3.90;;;;;;;;;;5076504;28;20048;-66
2022/02/13 13:40:00;;;;;;;8.05;3.97;;;;;;;;;;5083930;28;20052;-65
2022/02/13 13:42:34;;;;;;;6.00;3.80;;;;;;;;;;5074929;28;20061;-65
2022/02/13 13:45:05;;;;;;;6.65;3.42;;;;;;;;;;5080749;28;20079;-65
2022/02/13 13:47:31;;;;;;;5.18;3.40;;;;;;;;;;5083453;28;20462;-65
2022/02/13 13:49:57;;;;;;;5.10;3.53;;;;;;;;;;5087400;28;20045;-64
2022/02/13 13:52:24;;;;;;;6.72;3.78;;;;;;;;;;5074667;28;20109;-65
2022/02/13 13:54:50;;;;;;;5.35;3.28;;;;;;;;;;5076773;28;20176;-65
2022/02/13 13:57:16;;;;;;;5.38;3.20;;;;;;;;;;5097145;28;20049;-65
2022/02/13 13:59:42;;;;;;;6.30;3.72;;;;;;;;;;5064790;28;20048;-65
2022/02/13 14:02:26;;;;;;;5.57;3.58;;;;;;;;;;5079029;28;20470;-65
2022/02/13 14:04:53;;;;;;;4.45;3.22;;;;;;;;;;5084714;28;20056;-64
2022/02/13 14:07:20;;;;;;;6.03;3.97;;;;;;;;;;5071211;28;20396;-64
2022/02/13 14:09:46;;;;;;;4.10;2.95;;;;;;;;;;5085992;28;20049;-65
2022/02/13 14:12:13;;;;;;;7.28;3.85;;;;;;;;;;5082302;28;20370;-65
2022/02/13 14:14:40;;;;;;;5.65;3.50;;;;;;;;;;5064495;28;20053;-65
2022/02/13 14:17:06;;;;;;;4.88;3.63;;;;;;;;;;5069480;28;20146;-65
2022/02/13 14:19:32;;;;;;;5.80;3.60;;;;;;;;;;5085836;28;20052;-65
2022/02/13 14:21:59;;;;;;;4.22;3.28;;;;;;;;;;5083976;28;20120;-66
2022/02/13 14:24:25;;;;;;;6.20;3.95;;;;;;;;;;5085509;28;20062;-65
2022/02/13 14:26:51;;;;;;;5.03;3.45;;;;;;;;;;5082015;28;20083;-65
2022/02/13 14:29:17;;;;;;;5.15;3.67;;;;;;;;;;5083228;28;20037;-66
2022/02/13 14:31:44;;;;;;;7.55;4.03;;;;;;;;;;5074017;28;20074;-64
2022/02/13 14:34:17;;;;;;;8.17;4.20;;;;;;;;;;5079223;28;20052;-65
2022/02/13 14:36:47;;;;;;;6.50;4.15;;;;;;;;;;5063613;28;20108;-65
2022/02/13 14:39:13;;;;;;;4.78;3.63;;;;;;;;;;5081985;28;20123;-66
2022/02/13 14:41:40;;;;;;;4.93;3.60;;;;;;;;;;5081747;28;20048;-65